createdAt,value
2017-11-04T00:00:14.651Z,30.20
2017-11-04T00:02:45.274Z,27.43
2017-11-04T00:05:23.056Z,28.13
2017-11-04T00:07:52.247Z,26.07
2017-11-04T00:10:20.452Z,27.27
2017-11-04T00:12:48.622Z,27.27
2017-11-04T00:15:17.193Z,26.10
2017-11-04T00:17:46.134Z,26.20
2017-11-04T00:20:15.119Z,27.63
2017-11-04T00:22:44.358Z,27.30
2017-11-04T00:25:15.433Z,26.10
2017-11-04T00:27:46.824Z,25.80
2017-11-04T00:30:14.980Z,26.53
2017-11-04T00:32:51.132Z,25.57
2017-11-04T00:35:30.912Z,26.93
2017-11-04T00:37:59.043Z,25.43
2017-11-04T00:40:28.541Z,25.40
2017-11-04T00:42:57.441Z,23.27
2017-11-04T00:45:25.612Z,24.43
2017-11-04T00:47:54.827Z,25.30
2017-11-04T00:50:24.598Z,25.77
2017-11-04T00:52:55.689Z,26.17
2017-11-04T00:55:25.164Z,24.70
2017-11-04T00:57:56.490Z,25.47
2017-11-04T01:00:26.133Z,24.90
2017-11-04T01:02:55.337Z,24.80
2017-11-04T01:05:24.137Z,25.70
2017-11-04T01:07:52.265Z,25.10
2017-11-04T01:10:21.834Z,24.77
2017-11-04T01:12:49.951Z,23.80
2017-11-04T01:15:18.491Z,22.67
2017-11-04T01:17:48.394Z,22.80
2017-11-04T01:20:16.614Z,25.70
2017-11-04T01:22:44.833Z,24.10
2017-11-04T01:25:13.014Z,24.37
2017-11-04T01:27:41.549Z,25.23
2017-11-04T01:30:09.671Z,24.13
2017-11-04T01:32:37.868Z,25.30
2017-11-04T01:35:06.779Z,25.90
2017-11-04T01:37:35.955Z,24.37
2017-11-04T01:40:04.905Z,24.27
2017-11-04T01:42:33.037Z,27.40
2017-11-04T01:45:01.142Z,24.20
2017-11-04T01:47:29.403Z,25.23
2017-11-04T01:49:57.701Z,25.30
2017-11-04T01:52:25.862Z,25.87
2017-11-04T01:54:54.013Z,26.53
2017-11-04T01:57:22.183Z,24.40
2017-11-04T01:59:50.436Z,25.70
2017-11-04T02:02:18.652Z,25.53
2017-11-04T02:04:47.684Z,24.77
2017-11-04T02:07:17.539Z,26.10
2017-11-04T02:09:46.785Z,25.67
2017-11-04T02:12:14.973Z,24.43
2017-11-04T02:14:43.092Z,25.87
2017-11-04T02:17:11.330Z,25.33
2017-11-04T02:19:39.528Z,25.03
2017-11-04T02:22:07.719Z,26.10
2017-11-04T02:24:37.447Z,26.50
2017-11-04T02:27:06.399Z,24.70
2017-11-04T02:29:34.617Z,25.03
2017-11-04T02:32:03.645Z,25.10
2017-11-04T02:34:31.861Z,26.20
2017-11-04T02:37:00.896Z,25.90
2017-11-04T02:39:30.938Z,26.00
2017-11-04T02:41:59.158Z,23.33
2017-11-04T02:44:27.361Z,26.27
2017-11-04T02:46:56.325Z,26.73
2017-11-04T02:49:25.327Z,26.90
2017-11-04T02:51:54.360Z,25.10
2017-11-04T02:54:22.633Z,25.00
2017-11-04T02:56:50.848Z,27.10
2017-11-04T02:59:18.983Z,26.50
2017-11-04T03:01:47.352Z,28.30
2017-11-04T03:04:15.551Z,25.00
2017-11-04T03:06:43.754Z,26.80
2017-11-04T03:09:12.721Z,26.90
2017-11-04T03:11:41.422Z,26.93
2017-11-04T03:14:10.374Z,26.07
2017-11-04T03:16:39.245Z,27.60
2017-11-04T03:19:07.518Z,28.30
2017-11-04T03:21:36.628Z,27.10
2017-11-04T03:24:04.795Z,27.17
2017-11-04T03:26:33.530Z,25.97
2017-11-04T03:29:01.682Z,25.97
2017-11-04T03:31:29.850Z,27.50
2017-11-04T03:33:58.001Z,29.17
2017-11-04T03:36:26.290Z,29.87
2017-11-04T03:38:54.421Z,28.97
2017-11-04T03:41:23.339Z,28.80
2017-11-04T03:43:51.541Z,27.70
2017-11-04T03:46:19.744Z,29.37
2017-11-04T03:48:48.746Z,28.60
2017-11-04T03:51:18.280Z,26.53
2017-11-04T03:53:47.326Z,28.50
2017-11-04T03:56:15.480Z,28.20
2017-11-04T03:58:43.583Z,26.40
2017-11-04T04:01:11.732Z,28.13
2017-11-04T04:03:40.317Z,25.77
2017-11-04T04:06:08.495Z,27.07
2017-11-04T04:08:37.800Z,28.00
2017-11-04T04:11:06.567Z,26.60
2017-11-04T04:13:34.682Z,27.40
2017-11-04T04:16:03.641Z,27.70
2017-11-04T04:18:31.792Z,28.07
2017-11-04T04:21:00.021Z,28.10
2017-11-04T04:23:28.946Z,27.63
2017-11-04T04:25:58.117Z,28.03
2017-11-04T04:28:27.131Z,29.53
2017-11-04T04:30:55.281Z,29.47
2017-11-04T04:33:24.254Z,28.37
2017-11-04T04:35:52.431Z,30.93
2017-11-04T04:38:22.120Z,30.53
2017-11-04T04:40:51.157Z,29.70
2017-11-04T04:43:20.732Z,30.87
2017-11-04T04:45:48.840Z,29.40
2017-11-04T04:48:18.276Z,29.47
2017-11-04T04:50:46.386Z,29.37
2017-11-04T04:53:14.555Z,28.97
2017-11-04T04:55:42.782Z,29.27
2017-11-04T04:58:11.007Z,30.33
2017-11-04T05:00:40.028Z,29.37
2017-11-04T05:03:08.766Z,31.90
2017-11-04T05:05:37.634Z,30.20
2017-11-04T05:08:05.848Z,30.43
2017-11-04T05:10:34.308Z,31.50
2017-11-04T05:13:02.398Z,31.37
2017-11-04T05:15:30.656Z,30.33
2017-11-04T05:17:59.044Z,28.43
2017-11-04T05:20:28.057Z,30.73
2017-11-04T05:22:57.233Z,31.10
2017-11-04T05:35:10.403Z,28.83
2017-11-04T05:37:39.664Z,28.30
2017-11-04T05:40:08.600Z,29.20
2017-11-04T05:42:36.801Z,29.80
2017-11-04T05:45:06.262Z,32.70
2017-11-04T05:47:34.424Z,31.87
2017-11-04T05:50:02.642Z,31.07
2017-11-04T05:52:30.860Z,31.40
2017-11-04T05:54:59.045Z,32.07
2017-11-04T05:57:27.258Z,32.10
2017-11-04T05:59:56.263Z,34.80
2017-11-04T06:02:25.691Z,31.17
2017-11-04T06:04:53.918Z,32.27
2017-11-04T06:07:22.124Z,32.20
2017-11-04T06:09:51.088Z,31.57
2017-11-04T06:12:19.987Z,32.73
2017-11-04T06:14:49.666Z,32.20
2017-11-04T06:17:17.873Z,33.03
2017-11-04T06:19:46.892Z,31.70
2017-11-04T06:22:15.861Z,32.53
2017-11-04T06:24:44.027Z,33.67
2017-11-04T06:27:12.941Z,34.17
2017-11-04T06:29:41.951Z,32.17
2017-11-04T06:32:10.348Z,31.80
2017-11-04T06:34:38.491Z,33.87
2017-11-04T06:37:06.684Z,32.73
2017-11-04T06:39:35.685Z,30.00
2017-11-04T06:42:03.856Z,35.03
2017-11-04T06:44:32.067Z,33.77
2017-11-04T06:47:00.239Z,34.33
2017-11-04T06:49:28.439Z,33.10
2017-11-04T06:51:57.379Z,35.30
2017-11-04T06:54:25.748Z,32.10
2017-11-04T06:56:54.169Z,34.50
2017-11-04T06:59:23.535Z,34.70
2017-11-04T07:01:52.208Z,33.60
2017-11-04T07:04:21.110Z,34.73
2017-11-04T07:06:49.301Z,34.17
2017-11-04T07:09:17.486Z,33.27
2017-11-04T07:11:45.754Z,34.47
2017-11-04T07:14:14.779Z,34.10
2017-11-04T07:16:43.731Z,34.67
2017-11-04T07:19:11.925Z,33.70
2017-11-04T07:21:41.691Z,34.10
2017-11-04T07:24:09.792Z,33.53
2017-11-04T07:26:37.962Z,34.53
2017-11-04T07:29:06.128Z,35.60
2017-11-04T07:31:34.363Z,33.73
2017-11-04T07:34:02.599Z,32.03
2017-11-04T07:36:30.786Z,32.87
2017-11-04T07:38:58.996Z,33.30
2017-11-04T07:41:27.953Z,31.70
2017-11-04T07:43:56.170Z,31.13
2017-11-04T07:46:24.440Z,33.20
2017-11-04T07:48:53.311Z,33.60
2017-11-04T07:51:21.502Z,30.90
2017-11-04T07:53:50.459Z,31.53
2017-11-04T07:56:20.507Z,33.60
2017-11-04T07:58:49.593Z,33.53
2017-11-04T08:01:20.428Z,31.70
2017-11-04T08:03:49.579Z,33.07
2017-11-04T08:06:17.797Z,35.37
2017-11-04T08:08:46.932Z,36.67
2017-11-04T08:11:16.602Z,38.17
2017-11-04T08:13:46.819Z,39.27
2017-11-04T08:16:15.788Z,34.53
2017-11-04T08:18:45.471Z,31.90
2017-11-04T08:21:13.722Z,37.93
2017-11-04T08:23:42.905Z,35.80
2017-11-04T08:26:11.125Z,34.83
2017-11-04T08:28:41.113Z,33.60
2017-11-04T08:31:09.366Z,34.67
2017-11-04T08:33:38.263Z,36.00
2017-11-04T08:36:06.988Z,34.97
2017-11-04T08:38:35.232Z,33.37
2017-11-04T08:41:06.499Z,32.63
2017-11-04T08:43:36.064Z,31.70
2017-11-04T08:46:08.436Z,34.13
2017-11-04T08:48:36.709Z,33.13
2017-11-04T08:51:07.073Z,32.67
2017-11-04T08:53:35.390Z,32.00
2017-11-04T08:56:03.695Z,30.20
2017-11-04T08:58:31.957Z,28.27
2017-11-04T09:01:01.977Z,34.70
2017-11-04T09:03:33.102Z,27.83
2017-11-04T09:06:01.947Z,27.83
2017-11-04T09:08:30.970Z,28.30
2017-11-04T09:11:00.100Z,24.43
2017-11-04T09:13:29.068Z,26.67
2017-11-04T09:15:57.335Z,27.37
2017-11-04T09:18:25.603Z,27.00
2017-11-04T09:20:53.848Z,25.43
2017-11-04T09:23:22.807Z,24.57
2017-11-04T09:25:51.773Z,23.73
2017-11-04T09:28:21.175Z,25.07
2017-11-04T09:30:52.941Z,22.50
2017-11-04T09:33:21.997Z,25.10
2017-11-04T09:35:50.413Z,22.20
2017-11-04T09:38:20.063Z,23.77
2017-11-04T09:40:49.198Z,23.13
2017-11-04T09:43:22.736Z,23.40
2017-11-04T09:45:51.554Z,23.90
2017-11-04T09:48:20.386Z,23.47
2017-11-04T09:50:50.333Z,24.27
2017-11-04T09:53:19.023Z,23.73
2017-11-04T09:55:48.106Z,21.60
2017-11-04T09:58:17.726Z,23.57
2017-11-04T10:00:46.992Z,22.80
2017-11-04T10:03:18.045Z,23.43
2017-11-04T10:05:46.351Z,22.33
2017-11-04T10:08:19.682Z,22.63
2017-11-04T10:10:48.199Z,22.70
2017-11-04T10:13:16.466Z,24.00
2017-11-04T10:15:44.727Z,23.67
2017-11-04T10:18:13.472Z,22.60
2017-11-04T10:20:42.520Z,22.73
2017-11-04T10:23:11.526Z,23.00
2017-11-04T10:25:41.216Z,23.40
2017-11-04T10:28:11.908Z,22.80
2017-11-04T10:30:40.097Z,23.20
2017-11-04T10:33:09.364Z,25.30
2017-11-04T10:35:37.662Z,27.27
2017-11-04T10:38:06.789Z,25.10
2017-11-04T10:40:35.032Z,23.87
2017-11-04T10:43:04.828Z,22.90
2017-11-04T10:45:33.769Z,23.73
2017-11-04T10:48:02.080Z,24.03
2017-11-04T10:50:30.586Z,22.60
2017-11-04T10:52:59.990Z,22.47
2017-11-04T10:55:29.023Z,22.40
2017-11-04T10:57:57.290Z,22.67
2017-11-04T11:00:27.084Z,22.57
2017-11-04T11:02:55.345Z,31.47
2017-11-04T11:05:23.613Z,24.70
2017-11-04T11:07:52.130Z,21.60
2017-11-04T11:10:21.415Z,23.00
2017-11-04T11:12:49.674Z,21.83
2017-11-04T11:15:17.984Z,22.80
2017-11-04T11:17:46.252Z,23.00
2017-11-04T11:20:15.970Z,21.27
2017-11-04T11:22:44.673Z,22.53
2017-11-04T11:25:14.323Z,21.87
2017-11-04T11:27:42.590Z,22.70
2017-11-04T11:30:10.859Z,20.00
2017-11-04T11:32:39.144Z,19.53
2017-11-04T11:35:07.444Z,21.20
2017-11-04T11:37:35.791Z,21.50
2017-11-04T11:40:05.192Z,21.53
2017-11-04T11:42:34.148Z,20.20
2017-11-04T11:45:03.229Z,20.03
2017-11-04T11:47:33.603Z,21.73
2017-11-04T11:50:02.405Z,20.40
2017-11-04T11:52:30.639Z,20.33
2017-11-04T11:54:58.846Z,19.53
2017-11-04T11:57:27.032Z,21.33
2017-11-04T11:59:55.266Z,19.03
2017-11-04T12:02:23.453Z,19.53
2017-11-04T12:04:51.717Z,20.47
2017-11-04T12:07:21.343Z,22.00
2017-11-04T12:09:50.471Z,17.17
2017-11-04T12:12:19.758Z,20.37
2017-11-04T12:14:47.962Z,20.10
2017-11-04T12:17:16.949Z,19.43
2017-11-04T12:19:45.178Z,17.40
2017-11-04T12:22:13.426Z,17.17
2017-11-04T12:24:41.647Z,18.27
2017-11-04T12:27:09.814Z,16.53
2017-11-04T12:29:38.004Z,15.73
2017-11-04T12:32:06.168Z,16.70
2017-11-04T12:34:35.270Z,14.93
2017-11-04T12:37:04.237Z,16.00
2017-11-04T12:39:32.427Z,16.00
2017-11-04T12:42:03.513Z,15.80
2017-11-04T12:44:31.723Z,14.27
2017-11-04T12:46:59.933Z,15.43
2017-11-04T12:49:28.408Z,14.17
2017-11-04T12:51:56.616Z,15.47
2017-11-04T12:54:24.835Z,15.30
2017-11-04T12:56:53.773Z,12.37
2017-11-04T12:59:22.682Z,13.00
2017-11-04T13:01:50.991Z,13.67
2017-11-04T13:04:19.903Z,13.20
2017-11-04T13:06:48.552Z,14.77
2017-11-04T13:09:17.586Z,14.03
2017-11-04T13:11:47.223Z,13.70
2017-11-04T13:14:16.188Z,13.90
2017-11-04T13:16:44.415Z,12.70
2017-11-04T13:19:12.626Z,13.30
2017-11-04T13:21:41.534Z,12.57
2017-11-04T13:24:09.814Z,13.90
2017-11-04T13:26:38.821Z,12.57
2017-11-04T13:29:07.080Z,13.60
2017-11-04T13:31:35.307Z,14.90
2017-11-04T13:34:03.533Z,12.70
2017-11-04T13:36:31.801Z,14.60
2017-11-04T13:39:00.072Z,13.60
2017-11-04T13:41:28.238Z,14.77
2017-11-04T13:43:56.436Z,14.63
2017-11-04T13:46:25.578Z,14.97
2017-11-04T13:48:53.775Z,14.17
2017-11-04T13:51:23.209Z,14.17
2017-11-04T13:53:51.478Z,13.17
2017-11-04T13:56:19.721Z,13.97
2017-11-04T13:58:48.890Z,13.00
2017-11-04T14:01:17.152Z,13.40
2017-11-04T14:03:47.417Z,12.23
2017-11-04T14:06:17.347Z,12.77
2017-11-04T14:08:46.388Z,11.97
2017-11-04T14:11:14.587Z,12.77
2017-11-04T14:13:43.576Z,12.60
2017-11-04T14:16:12.158Z,12.40
2017-11-04T14:18:40.393Z,11.90
2017-11-04T14:21:09.448Z,12.33
2017-11-04T14:23:37.743Z,12.10
2017-11-04T14:26:05.984Z,12.73
2017-11-04T14:28:34.984Z,12.77
2017-11-04T14:31:03.849Z,11.23
2017-11-04T14:33:32.057Z,12.77
2017-11-04T14:36:00.268Z,11.83
2017-11-04T14:38:28.436Z,11.87
2017-11-04T14:40:56.669Z,11.50
2017-11-04T14:43:25.664Z,11.63
2017-11-04T14:45:54.526Z,12.63
2017-11-04T14:48:22.765Z,13.77
2017-11-04T14:50:50.979Z,11.80
2017-11-04T14:53:19.947Z,13.00
2017-11-04T14:55:48.127Z,12.20
2017-11-04T14:58:17.134Z,12.23
2017-11-04T15:00:46.179Z,12.33
2017-11-04T15:03:15.300Z,12.40
2017-11-04T15:05:44.448Z,12.30
2017-11-04T15:08:12.629Z,12.60
2017-11-04T15:10:40.858Z,12.90
2017-11-04T15:13:09.839Z,13.13
2017-11-04T15:15:38.024Z,13.20
2017-11-04T15:18:07.092Z,12.70
2017-11-04T15:20:36.858Z,14.40
2017-11-04T15:23:05.063Z,12.73
2017-11-04T15:25:33.294Z,13.20
2017-11-04T15:28:03.380Z,12.03
2017-11-04T15:30:34.681Z,12.30
2017-11-04T15:33:04.168Z,14.27
2017-11-04T15:35:33.168Z,13.20
2017-11-04T15:38:01.300Z,12.00
2017-11-04T15:40:29.538Z,13.20
2017-11-04T15:42:58.233Z,13.60
2017-11-04T15:45:26.317Z,13.10
2017-11-04T15:47:54.393Z,13.70
2017-11-04T15:50:22.484Z,14.30
2017-11-04T15:52:50.581Z,12.53
2017-11-04T15:55:18.651Z,14.47
2017-11-04T15:57:46.813Z,12.13
2017-11-04T16:00:14.896Z,14.10
2017-11-04T16:02:42.983Z,13.10
2017-11-04T16:05:11.057Z,13.53
2017-11-04T16:07:39.128Z,14.60
2017-11-04T16:10:07.227Z,13.90
2017-11-04T16:12:35.333Z,13.40
2017-11-04T16:15:04.202Z,13.40
2017-11-04T16:17:32.307Z,13.07
2017-11-04T16:20:01.146Z,15.23
2017-11-04T16:22:29.232Z,14.90
2017-11-04T16:24:57.297Z,20.17
2017-11-04T16:27:25.394Z,14.60
2017-11-04T16:29:54.207Z,16.50
2017-11-04T16:32:22.328Z,12.63
2017-11-04T16:34:50.389Z,13.30
2017-11-04T16:37:18.467Z,13.70
2017-11-04T16:39:46.581Z,12.87
2017-11-04T16:42:15.412Z,13.50
2017-11-04T16:44:43.486Z,12.60
2017-11-04T16:47:11.582Z,13.20
2017-11-04T16:49:40.410Z,13.23
2017-11-04T16:52:08.526Z,13.00
2017-11-04T16:54:37.374Z,12.70
2017-11-04T16:57:05.461Z,13.43
2017-11-04T16:59:33.527Z,13.10
2017-11-04T17:02:02.559Z,12.57
2017-11-04T17:04:31.421Z,13.60
2017-11-04T17:06:59.534Z,13.77
2017-11-04T17:09:28.891Z,12.30
2017-11-04T17:11:56.955Z,12.80
2017-11-04T17:14:25.071Z,14.90
2017-11-04T17:16:53.983Z,10.87
2017-11-04T17:19:22.795Z,12.17
2017-11-04T17:21:50.934Z,11.73
2017-11-04T17:24:19.019Z,14.30
2017-11-04T17:26:47.100Z,12.53
2017-11-04T17:29:15.199Z,13.00
2017-11-04T17:31:43.312Z,11.30
2017-11-04T17:34:12.150Z,10.83
2017-11-04T17:36:40.248Z,11.10
2017-11-04T17:39:08.415Z,12.50
2017-11-04T17:41:37.255Z,11.17
2017-11-04T17:44:05.344Z,11.43
2017-11-04T17:46:33.468Z,12.20
2017-11-04T17:49:02.367Z,11.97
2017-11-04T17:51:31.214Z,11.10
2017-11-04T17:53:59.374Z,12.40
2017-11-04T17:56:28.814Z,11.70
2017-11-04T17:58:56.877Z,10.53
2017-11-04T18:01:25.775Z,13.40
2017-11-04T18:03:54.651Z,12.60
2017-11-04T18:06:22.741Z,13.07
2017-11-04T18:08:50.812Z,13.90
2017-11-04T18:11:18.932Z,12.30
2017-11-04T18:13:47.655Z,12.10
2017-11-04T18:16:16.815Z,11.80
2017-11-04T18:18:44.872Z,12.20
2017-11-04T18:21:14.249Z,12.03
2017-11-04T18:23:43.070Z,11.60
2017-11-04T18:26:11.145Z,12.03
2017-11-04T18:28:39.234Z,12.40
2017-11-04T18:31:07.331Z,13.23
2017-11-04T18:33:36.160Z,14.03
2017-11-04T18:36:04.250Z,15.37
2017-11-04T18:38:32.340Z,14.40
2017-11-04T18:41:00.412Z,15.10
2017-11-04T18:43:28.483Z,15.63
2017-11-04T18:45:56.549Z,14.17
2017-11-04T18:48:24.637Z,15.60
2017-11-04T18:50:52.734Z,16.03
2017-11-04T18:53:20.858Z,16.70
2017-11-04T18:55:48.953Z,16.57
2017-11-04T18:58:17.156Z,17.20
2017-11-04T19:00:45.286Z,16.77
2017-11-04T19:03:13.378Z,15.60
2017-11-04T19:05:41.466Z,16.23
2017-11-04T19:08:09.561Z,15.50
2017-11-04T19:10:37.639Z,16.20
2017-11-04T19:13:05.709Z,16.77
2017-11-04T19:15:33.784Z,16.97
2017-11-04T19:18:02.681Z,16.53
2017-11-04T19:20:31.563Z,16.10
2017-11-04T19:22:59.632Z,17.13
2017-11-04T19:25:27.716Z,16.33
2017-11-04T19:27:56.573Z,16.30
2017-11-04T19:30:24.671Z,14.43
2017-11-04T19:32:53.595Z,14.83
2017-11-04T19:35:21.695Z,14.07
2017-11-04T19:37:49.822Z,13.43
2017-11-04T19:40:25.379Z,13.87
2017-11-04T19:42:53.704Z,13.43
2017-11-04T19:45:24.881Z,12.63
2017-11-04T19:48:02.628Z,12.60
2017-11-04T19:50:30.821Z,12.63
2017-11-04T19:52:59.983Z,11.73
2017-11-04T19:55:28.189Z,11.83
2017-11-04T19:57:59.923Z,11.67
2017-11-04T20:00:30.050Z,11.23
2017-11-04T20:03:04.849Z,12.27
2017-11-04T20:05:37.277Z,11.90
2017-11-04T20:08:05.512Z,11.87
2017-11-04T20:10:36.722Z,11.07
2017-11-04T20:13:10.943Z,10.57
2017-11-04T20:15:41.136Z,10.70
2017-11-04T20:18:12.238Z,11.00
2017-11-04T20:20:44.303Z,12.07
2017-11-04T20:23:13.437Z,11.80
2017-11-04T20:25:41.623Z,11.67
2017-11-04T20:28:13.369Z,10.80
2017-11-04T20:30:44.918Z,11.17
2017-11-04T20:33:14.757Z,12.43
2017-11-04T20:35:48.094Z,11.40
2017-11-04T20:38:16.212Z,10.97
2017-11-04T20:40:44.289Z,11.63
2017-11-04T20:43:12.363Z,12.10
2017-11-04T20:45:40.458Z,11.73
2017-11-04T20:48:09.341Z,12.73
2017-11-04T20:50:37.441Z,12.30
2017-11-04T20:53:06.292Z,12.47
2017-11-04T20:55:34.348Z,11.50
2017-11-04T20:58:03.207Z,11.53
2017-11-04T21:00:31.299Z,11.47
2017-11-04T21:03:00.158Z,10.53
2017-11-04T21:05:28.270Z,10.40
2017-11-04T21:07:57.127Z,11.20
2017-11-04T21:10:25.208Z,11.47
2017-11-04T21:12:53.280Z,11.40
2017-11-04T21:15:21.654Z,11.17
2017-11-04T21:17:49.733Z,11.47
2017-11-04T21:20:17.821Z,11.60
2017-11-04T21:22:46.692Z,10.30
2017-11-04T21:25:15.535Z,11.40
2017-11-04T21:27:43.921Z,10.63
2017-11-04T21:30:12.021Z,11.33
2017-11-04T21:32:40.101Z,11.73
2017-11-04T21:35:08.183Z,11.10
2017-11-04T21:37:37.035Z,11.83
2017-11-04T21:40:05.113Z,10.87
2017-11-04T21:42:33.186Z,12.07
2017-11-04T21:45:01.269Z,10.93
2017-11-04T21:47:29.340Z,11.90
2017-11-04T21:49:57.433Z,10.80
2017-11-04T21:52:25.523Z,12.47
2017-11-04T21:54:54.364Z,12.10
2017-11-04T21:57:22.436Z,11.27
2017-11-04T21:59:51.631Z,12.23
2017-11-04T22:02:19.699Z,11.23
2017-11-04T22:04:47.764Z,13.23
2017-11-04T22:07:15.865Z,10.90
2017-11-04T22:09:43.929Z,12.70
2017-11-04T22:12:12.002Z,13.00
2017-11-04T22:14:40.081Z,11.53
2017-11-04T22:17:08.192Z,10.97
2017-11-04T22:19:36.243Z,11.70
2017-11-04T22:22:05.263Z,11.97
2017-11-04T22:24:34.168Z,12.10
2017-11-04T22:27:02.223Z,11.47
2017-11-04T22:29:31.081Z,12.20
2017-11-04T22:31:59.160Z,12.27
2017-11-04T22:34:27.232Z,11.87
2017-11-04T22:36:55.301Z,11.43
2017-11-04T22:39:23.401Z,11.63
2017-11-04T22:41:51.485Z,12.37
2017-11-04T22:44:20.332Z,12.00
2017-11-04T22:46:48.418Z,11.60
2017-11-04T22:49:16.525Z,11.70
2017-11-04T22:51:45.349Z,11.50
2017-11-04T22:54:13.433Z,11.07
2017-11-04T22:56:41.534Z,10.60
2017-11-04T22:59:09.629Z,10.60
2017-11-04T23:01:37.702Z,11.13
2017-11-04T23:04:05.803Z,10.50
2017-11-04T23:06:33.899Z,10.67
2017-11-04T23:09:02.735Z,10.23
2017-11-04T23:11:30.833Z,10.97
2017-11-04T23:13:58.888Z,10.53
2017-11-04T23:16:26.962Z,16.83
2017-11-04T23:18:55.031Z,12.37
2017-11-04T23:21:23.129Z,9.90
2017-11-04T23:23:51.207Z,10.77
2017-11-04T23:26:20.051Z,9.67
2017-11-04T23:28:48.145Z,11.33
2017-11-04T23:31:16.213Z,10.40
2017-11-04T23:33:44.316Z,10.63
2017-11-04T23:36:13.140Z,11.03
2017-11-04T23:38:41.231Z,12.03
2017-11-04T23:41:09.295Z,10.50
2017-11-04T23:43:37.359Z,11.60
2017-11-04T23:46:05.443Z,11.00
2017-11-04T23:48:33.541Z,10.50
2017-11-04T23:51:01.607Z,11.33
2017-11-04T23:53:29.675Z,9.97
2017-11-04T23:55:58.556Z,10.80
2017-11-04T23:58:26.621Z,10.37
